createdAt,value
2022-08-14T00:02:02.325Z,100921.81
2022-08-14T00:04:34.521Z,100924.13
2022-08-14T00:07:07.601Z,100920.41
2022-08-14T00:09:55.189Z,100930.56
2022-08-14T00:12:23.897Z,100929.91
2022-08-14T00:14:54.712Z,100921.63
2022-08-14T00:17:22.784Z,100917.81
2022-08-14T00:19:51.669Z,100921.53
2022-08-14T00:22:22.076Z,100919.88
2022-08-14T00:25:08.839Z,100918.16
2022-08-14T00:27:37.979Z,100921.91
2022-08-14T00:30:07.309Z,100922.91
2022-08-14T00:32:51.793Z,100924.88
2022-08-14T00:35:20.920Z,100928.22
2022-08-14T00:38:09.639Z,100921.44
2022-08-14T00:40:37.387Z,100915.66
2022-08-14T00:43:05.113Z,100915.50
2022-08-14T00:45:32.700Z,100920.06
2022-08-14T00:48:00.356Z,100914.47
2022-08-14T00:50:30.384Z,100917.81
2022-08-14T00:52:59.961Z,100912.59
2022-08-14T00:55:29.962Z,100913.25
2022-08-14T00:58:12.023Z,100898.94
2022-08-14T01:00:47.361Z,100906.84
2022-08-14T01:03:18.945Z,100904.16
2022-08-14T01:05:52.000Z,100901.47
2022-08-14T01:08:20.680Z,100897.06
2022-08-14T01:11:09.751Z,100898.75
2022-08-14T01:13:42.374Z,100901.47
2022-08-14T01:16:12.120Z,100894.38
2022-08-14T01:19:02.340Z,100890.69
2022-08-14T01:21:34.746Z,100898.94
2022-08-14T01:24:07.379Z,100889.00
2022-08-14T01:26:38.745Z,100885.66
2022-08-14T01:29:06.820Z,100880.63
2022-08-14T01:31:39.150Z,100885.19
2022-08-14T01:35:20.662Z,100887.25
2022-08-14T01:36:55.722Z,100886.03
2022-08-14T01:39:23.203Z,100887.69
2022-08-14T01:41:56.129Z,100883.97
2022-08-14T01:44:33.235Z,100893.09
2022-08-14T01:47:05.816Z,100891.41
2022-08-14T01:49:35.689Z,100888.06
2022-08-14T01:52:33.991Z,100886.84
2022-08-14T01:55:02.885Z,100880.63
2022-08-14T01:58:01.024Z,100882.31
2022-08-14T02:00:21.766Z,100881.84
2022-08-14T02:02:56.439Z,100879.97
2022-08-14T02:05:38.145Z,100877.28
2022-08-14T02:08:09.674Z,100877.09
2022-08-14T02:10:46.099Z,100877.28
2022-08-14T02:13:16.257Z,100879.97
2022-08-14T02:15:44.226Z,100876.91
2022-08-14T02:18:15.338Z,100886.03
2022-08-14T02:20:42.916Z,100878.28
2022-08-14T02:23:12.730Z,100870.88
2022-08-14T02:25:44.137Z,100869.84
2022-08-14T02:28:57.038Z,100875.22
2022-08-14T02:31:10.686Z,100873.59
2022-08-14T02:33:42.678Z,100873.59
2022-08-14T02:37:05.187Z,100872.25
2022-08-14T02:38:59.518Z,100872.63
2022-08-14T02:41:28.899Z,100874.03
2022-08-14T02:44:00.894Z,100867.63
2022-08-14T02:46:32.150Z,100864.72
2022-08-14T02:49:04.523Z,100857.50
2022-08-14T02:51:33.401Z,100858.13
2022-08-14T02:54:03.690Z,100858.13
2022-08-14T02:57:15.546Z,100858.13
2022-08-14T02:59:28.812Z,100847.34
2022-08-14T03:01:57.341Z,100854.16
2022-08-14T03:04:26.397Z,100851.84
2022-08-14T03:07:06.527Z,100842.69
2022-08-14T03:10:24.489Z,100844.38
2022-08-14T03:12:31.078Z,100842.34
2022-08-14T03:15:00.462Z,100840.69
2022-08-14T03:17:31.726Z,100845.69
2022-08-14T03:20:11.407Z,100844.03
2022-08-14T03:22:41.856Z,100842.34
2022-08-14T03:25:12.094Z,100836.94
2022-08-14T03:27:47.750Z,100846.53
2022-08-14T03:30:15.597Z,100840.47
2022-08-14T03:32:51.505Z,100840.97
2022-08-14T03:35:19.738Z,100839.91
2022-08-14T03:39:10.666Z,100840.09
2022-08-14T03:40:38.117Z,100836.56
2022-08-14T03:43:06.274Z,100840.75
2022-08-14T03:45:35.734Z,100832.88
2022-08-14T03:48:05.250Z,100838.03
2022-08-14T03:50:39.465Z,100836.22
2022-08-14T03:53:06.892Z,100829.78
2022-08-14T03:55:36.544Z,100824.38
2022-08-14T03:58:05.199Z,100826.25
2022-08-14T04:00:43.996Z,100829.13
2022-08-14T04:03:23.554Z,100824.78
2022-08-14T04:05:51.941Z,100817.53
2022-08-14T04:08:30.177Z,100816.69
2022-08-14T04:11:01.252Z,100819.38
2022-08-14T04:13:31.635Z,100812.97
2022-08-14T04:16:05.231Z,100810.44
2022-08-14T04:18:34.371Z,100815.00
2022-08-14T04:21:02.348Z,100811.31
2022-08-14T04:23:32.826Z,100807.94
2022-08-14T04:26:03.012Z,100810.63
2022-08-14T04:29:06.809Z,100810.44
2022-08-14T04:31:18.232Z,100811.31
2022-08-14T04:33:53.237Z,100816.69
2022-08-14T04:36:21.324Z,100811.50
2022-08-14T04:39:08.988Z,100806.94
2022-08-14T04:41:58.409Z,100812.50
2022-08-14T04:44:36.847Z,100814.19
2022-08-14T04:47:23.734Z,100811.50
2022-08-14T04:49:57.224Z,100811.84
2022-08-14T04:52:25.469Z,100807.66
2022-08-14T04:54:54.758Z,100813.06
2022-08-14T04:57:24.842Z,100817.63
2022-08-14T04:59:52.969Z,100816.59
2022-08-14T05:02:24.373Z,100812.22
2022-08-14T05:04:57.090Z,100812.41
2022-08-14T05:07:46.883Z,100809.53
2022-08-14T05:10:16.461Z,100814.94
2022-08-14T05:13:12.717Z,100813.06
2022-08-14T05:15:40.660Z,100804.97
2022-08-14T05:18:17.222Z,100804.97
2022-08-14T05:21:56.830Z,100794.38
2022-08-14T05:23:35.568Z,100800.63
2022-08-14T05:26:05.993Z,100787.16
2022-08-14T05:28:36.085Z,100789.66
2022-08-14T05:31:06.304Z,100794.00
2022-08-14T05:33:34.675Z,100797.56
2022-08-14T05:36:05.008Z,100794.00
2022-08-14T05:38:35.234Z,100788.63
2022-08-14T05:41:06.355Z,100788.63
2022-08-14T05:43:41.231Z,100778.69
2022-08-14T05:46:10.934Z,100772.25
2022-08-14T05:48:43.710Z,100773.09
2022-08-14T05:51:12.164Z,100772.06
2022-08-14T05:53:42.489Z,100770.19
2022-08-14T05:56:10.091Z,100779.34
2022-08-14T05:58:40.974Z,100783.69
2022-08-14T06:01:10.277Z,100784.81
2022-08-14T06:03:40.185Z,100780.59
2022-08-14T06:06:08.520Z,100781.84
2022-08-14T06:08:41.464Z,100776.63
2022-08-14T06:11:09.463Z,100781.84
2022-08-14T06:13:44.430Z,100778.28
2022-08-14T06:16:12.947Z,100780.97
2022-08-14T06:18:40.383Z,100776.44
2022-08-14T06:21:12.955Z,100771.88
2022-08-14T06:23:41.197Z,100765.47
2022-08-14T06:26:09.496Z,100776.25
2022-08-14T06:28:39.075Z,100772.06
2022-08-14T06:31:08.550Z,100764.94
2022-08-14T06:35:02.806Z,100771.72
2022-08-14T06:36:23.733Z,100777.47
2022-08-14T06:38:52.571Z,100765.88
2022-08-14T06:41:58.623Z,100770.88
2022-08-14T06:44:10.965Z,100764.53
2022-08-14T06:46:39.632Z,100758.59
2022-08-14T06:49:07.262Z,100757.41
2022-08-14T06:51:38.641Z,100756.81
2022-08-14T06:54:13.579Z,100751.84
2022-08-14T06:56:44.156Z,100751.69
2022-08-14T06:59:19.108Z,100758.94
2022-08-14T07:02:05.123Z,100752.06
2022-08-14T07:04:49.946Z,100747.50
2022-08-14T07:07:18.337Z,100744.81
2022-08-14T07:09:51.079Z,100741.09
2022-08-14T07:12:52.192Z,100742.56
2022-08-14T07:15:08.790Z,100744.03
2022-08-14T07:17:44.416Z,100747.59
2022-08-14T07:20:12.535Z,100741.16
2022-08-14T07:22:55.853Z,100741.78
2022-08-14T07:25:32.207Z,100743.28
2022-08-14T07:28:05.985Z,100744.38
2022-08-14T07:30:35.421Z,100735.28
2022-08-14T07:33:03.134Z,100725.69
2022-08-14T07:35:42.832Z,100731.28
2022-08-14T07:38:18.407Z,100729.25
2022-08-14T07:40:47.429Z,100730.50
2022-08-14T07:43:21.346Z,100726.56
2022-08-14T07:45:50.717Z,100729.88
2022-08-14T07:48:19.460Z,100727.38
2022-08-14T07:50:52.789Z,100725.69
2022-08-14T07:53:22.821Z,100721.59
2022-08-14T07:56:00.540Z,100713.69
2022-08-14T07:58:38.881Z,100717.50
2022-08-14T08:01:20.222Z,100715.44
2022-08-14T08:03:49.709Z,100709.66
2022-08-14T08:06:25.695Z,100709.03
2022-08-14T08:09:01.222Z,100700.75
2022-08-14T08:11:34.611Z,100705.28
2022-08-14T08:14:10.319Z,100702.59
2022-08-14T08:16:46.411Z,100702.84
2022-08-14T08:19:18.721Z,100703.25
2022-08-14T08:21:46.962Z,100699.91
2022-08-14T08:24:15.006Z,100697.88
2022-08-14T08:26:47.499Z,100692.47
2022-08-14T08:29:20.250Z,100695.16
2022-08-14T08:31:53.762Z,100694.97
2022-08-14T08:34:23.492Z,100680.44
2022-08-14T08:36:52.684Z,100679.00
2022-08-14T08:39:22.425Z,100690.78
2022-08-14T08:41:53.431Z,100687.72
2022-08-14T08:44:32.342Z,100687.72
2022-08-14T08:47:05.956Z,100688.28
2022-08-14T08:49:43.124Z,100680.25
2022-08-14T08:52:24.862Z,100675.09
2022-08-14T08:54:56.674Z,100673.00
2022-08-14T08:57:24.501Z,100664.31
2022-08-14T08:59:55.263Z,100664.13
2022-08-14T09:02:27.945Z,100661.88
2022-08-14T09:05:02.292Z,100665.19
2022-08-14T09:07:31.101Z,100657.56
2022-08-14T09:10:00.559Z,100662.75
2022-08-14T09:12:32.480Z,100661.53
2022-08-14T09:15:02.074Z,100654.16
2022-08-14T09:17:30.908Z,100653.41
2022-08-14T09:20:02.143Z,100646.75
2022-08-14T09:22:35.825Z,100646.72
2022-08-14T09:25:07.225Z,100641.78
2022-08-14T09:27:35.084Z,100631.00
2022-08-14T09:30:12.682Z,100634.75
2022-08-14T09:32:58.966Z,100638.09
2022-08-14T09:35:38.165Z,100632.50
2022-08-14T09:38:19.454Z,100631.88
2022-08-14T09:40:58.809Z,100627.72
2022-08-14T09:43:30.734Z,100632.78
2022-08-14T09:46:02.571Z,100626.78
2022-08-14T09:48:31.934Z,100629.28
2022-08-14T09:54:19.403Z,100622.03
2022-08-14T09:56:30.147Z,100616.81
2022-08-14T09:58:59.331Z,100620.16
2022-08-14T10:01:36.542Z,100610.81
2022-08-14T10:04:12.391Z,100594.84
2022-08-14T10:06:54.914Z,100594.50
2022-08-14T10:09:22.361Z,100597.56
2022-08-14T10:11:58.857Z,100592.38
2022-08-14T10:14:35.069Z,100592.97
2022-08-14T10:17:05.196Z,100593.00
2022-08-14T10:19:36.453Z,100590.91
2022-08-14T10:23:14.422Z,100587.38
2022-08-14T10:24:56.627Z,100576.19
2022-08-14T10:27:25.221Z,100573.69
2022-08-14T10:29:55.584Z,100569.31
2022-08-14T10:32:36.105Z,100565.16
2022-08-14T10:35:13.321Z,100565.78
2022-08-14T10:37:44.258Z,100561.63
2022-08-14T10:40:38.491Z,100541.91
2022-08-14T10:43:00.856Z,100551.09
2022-08-14T10:45:33.929Z,100544.88
2022-08-14T10:48:09.733Z,100542.31
2022-08-14T10:50:53.769Z,100530.31
2022-08-14T10:53:30.206Z,100536.59
2022-08-14T10:56:03.718Z,100526.22
2022-08-14T10:58:34.393Z,100519.13
2022-08-14T11:01:08.108Z,100523.94
2022-08-14T11:03:55.996Z,100523.94
2022-08-14T11:06:27.193Z,100528.75
2022-08-14T11:08:55.208Z,100524.97
2022-08-14T11:11:25.155Z,100516.66
2022-08-14T11:13:57.323Z,100517.53
2022-08-14T11:16:25.049Z,100520.84
2022-08-14T11:18:59.604Z,100519.16
2022-08-14T11:21:30.328Z,100518.38
2022-08-14T11:24:01.754Z,100520.88
2022-08-14T11:26:49.194Z,100512.53
2022-08-14T11:29:20.880Z,100506.72
2022-08-14T11:31:52.147Z,100513.59
2022-08-14T11:34:30.207Z,100506.72
2022-08-14T11:37:22.960Z,100501.09
2022-08-14T11:39:54.566Z,100498.84
2022-08-14T11:42:56.607Z,100500.50
2022-08-14T11:45:17.141Z,100498.41
2022-08-14T11:48:13.215Z,100495.53
2022-08-14T11:50:37.835Z,100498.66
2022-08-14T11:53:08.032Z,100492.22
2022-08-14T11:55:38.535Z,100492.22
2022-08-14T11:58:08.724Z,100488.91
2022-08-14T12:00:46.987Z,100485.16
2022-08-14T12:03:17.813Z,100478.53
2022-08-14T12:05:50.279Z,100476.03
2022-08-14T12:08:24.521Z,100476.03
2022-08-14T12:10:58.577Z,100476.03
2022-08-14T12:13:27.420Z,100473.56
2022-08-14T12:15:59.045Z,100471.88
2022-08-14T12:18:32.339Z,100461.66
2022-08-14T12:21:00.321Z,100456.47
2022-08-14T12:23:29.123Z,100459.19
2022-08-14T12:26:32.140Z,100455.66
2022-08-14T12:28:59.280Z,100458.56
2022-08-14T12:31:27.786Z,100455.44
2022-08-14T12:34:10.201Z,100444.22
2022-08-14T12:36:38.017Z,100436.94
2022-08-14T12:39:19.392Z,100429.06
2022-08-14T12:41:53.738Z,100433.03
2022-08-14T12:44:30.104Z,100429.47
2022-08-14T12:47:03.597Z,100418.69
2022-08-14T12:49:34.116Z,100427.41
2022-08-14T12:52:02.217Z,100423.06
2022-08-14T12:54:32.250Z,100424.50
2022-08-14T12:57:07.385Z,100423.25
2022-08-14T12:59:37.020Z,100417.66
2022-08-14T13:02:13.634Z,100418.47
2022-08-14T13:04:43.210Z,100418.28
2022-08-14T13:07:10.762Z,100403.75
2022-08-14T13:09:39.528Z,100405.78
2022-08-14T13:12:31.353Z,100394.56
2022-08-14T13:14:58.423Z,100395.00
2022-08-14T13:17:26.888Z,100397.50
2022-08-14T13:19:56.660Z,100394.00
2022-08-14T13:22:32.083Z,100385.25
2022-08-14T13:25:05.247Z,100370.06
2022-08-14T13:27:33.550Z,100372.97
2022-08-14T13:30:10.355Z,100373.38
2022-08-14T13:32:40.456Z,100361.53
2022-08-14T13:35:12.147Z,100352.41
2022-08-14T13:37:44.238Z,100353.66
2022-08-14T13:40:13.777Z,100335.97
2022-08-14T13:42:42.926Z,100336.84
2022-08-14T13:45:11.916Z,100330.16
2022-08-14T13:47:44.926Z,100333.53
2022-08-14T13:50:18.158Z,100329.75
2022-08-14T13:52:59.264Z,100318.53
2022-08-14T13:55:30.527Z,100322.06
2022-08-14T13:58:04.149Z,100324.97
2022-08-14T14:00:35.721Z,100324.56
2022-08-14T14:03:20.342Z,100312.13
2022-08-14T14:05:53.230Z,100306.47
2022-08-14T14:08:46.283Z,100301.06
2022-08-14T14:11:11.030Z,100291.94
2022-08-14T14:13:44.997Z,100289.41
2022-08-14T14:16:15.339Z,100286.91
2022-08-14T14:18:59.026Z,100272.38
2022-08-14T14:21:30.498Z,100287.31
2022-08-14T14:24:00.279Z,100285.59
2022-08-14T14:26:30.768Z,100275.88
2022-08-14T14:29:04.397Z,100269.84
2022-08-14T14:31:32.340Z,100264.47
2022-08-14T14:34:01.018Z,100257.59
2022-08-14T14:36:35.398Z,100260.88
2022-08-14T14:39:05.278Z,100263.97
2022-08-14T14:41:37.788Z,100264.41
2022-08-14T14:44:06.922Z,100263.81
2022-08-14T14:46:37.404Z,100259.88
2022-08-14T14:49:06.662Z,100260.50
2022-08-14T14:51:35.455Z,100259.88
2022-08-14T14:54:03.007Z,100250.28
2022-08-14T14:56:49.893Z,100260.25
2022-08-14T14:59:20.414Z,100258.81
2022-08-14T15:01:50.147Z,100249.88
2022-08-14T15:04:20.539Z,100243.63
2022-08-14T15:06:48.774Z,100253.63
2022-08-14T15:09:17.665Z,100247.81
2022-08-14T15:11:45.893Z,100238.88
2022-08-14T15:14:54.642Z,100238.66
2022-08-14T15:17:03.731Z,100230.38
2022-08-14T15:19:31.998Z,100224.53
2022-08-14T15:22:00.249Z,100229.31
2022-08-14T15:24:27.698Z,100234.84
2022-08-14T15:26:56.977Z,100234.44
2022-08-14T15:29:26.080Z,100232.78
2022-08-14T15:31:53.998Z,100229.88
2022-08-14T15:34:43.762Z,100230.88
2022-08-14T15:37:12.747Z,100229.38
2022-08-14T15:39:41.355Z,100222.94
2022-08-14T15:42:16.069Z,100218.19
2022-08-14T15:44:57.556Z,100214.69
2022-08-14T15:47:29.549Z,100214.69
2022-08-14T15:50:00.382Z,100217.78
2022-08-14T15:52:32.730Z,100210.69
2022-08-14T15:55:03.527Z,100217.34
2022-08-14T15:57:32.114Z,100216.53
2022-08-14T16:00:21.317Z,100212.59
2022-08-14T16:03:04.862Z,100203.69
2022-08-14T16:05:38.630Z,100192.91
2022-08-14T16:08:07.302Z,100200.19
2022-08-14T16:10:54.724Z,100199.94
2022-08-14T16:13:41.349Z,100189.97
2022-08-14T16:16:51.025Z,100183.50
2022-08-14T16:19:07.481Z,100179.16
2022-08-14T16:21:58.378Z,100190.38
2022-08-14T16:24:32.968Z,100179.19
2022-08-14T16:27:01.475Z,100177.97
2022-08-14T16:29:29.925Z,100174.22
2022-08-14T16:31:58.121Z,100166.97
2022-08-14T16:34:47.116Z,100167.59
2022-08-14T16:37:16.467Z,100162.78
2022-08-14T16:39:44.092Z,100161.75
2022-08-14T16:43:02.435Z,100157.97
2022-08-14T16:44:59.151Z,100157.56
2022-08-14T16:47:34.914Z,100153.19
2022-08-14T16:50:08.329Z,100147.13
2022-08-14T16:52:44.789Z,100148.59
2022-08-14T16:55:22.363Z,100148.34
2022-08-14T16:57:58.739Z,100149.63
2022-08-14T17:00:28.880Z,100146.31
2022-08-14T17:03:01.193Z,100146.75
2022-08-14T17:05:29.336Z,100138.44
2022-08-14T17:08:41.662Z,100143.66
2022-08-14T17:11:11.187Z,100134.31
2022-08-14T17:13:57.882Z,100140.34
2022-08-14T17:16:29.936Z,100133.47
2022-08-14T17:19:01.513Z,100142.88
2022-08-14T17:21:31.899Z,100143.06
2022-08-14T17:24:56.449Z,100131.03
2022-08-14T17:26:55.127Z,100129.38
2022-08-14T17:29:24.113Z,100136.63
2022-08-14T17:32:02.183Z,100131.69
2022-08-14T17:34:45.261Z,100136.25
2022-08-14T17:37:24.451Z,100129.81
2022-08-14T17:40:02.153Z,100131.91
2022-08-14T17:42:53.586Z,100131.91
2022-08-14T17:45:26.847Z,100126.94
2022-08-14T17:48:02.108Z,100140.44
2022-08-14T17:50:58.685Z,100131.94
2022-08-14T17:53:30.353Z,100130.69
2022-08-14T17:56:01.110Z,100131.09
2022-08-14T17:58:41.679Z,100136.50
2022-08-14T18:01:09.430Z,100131.94
2022-08-14T18:03:46.774Z,100139.22
2022-08-14T18:06:39.955Z,100144.00
2022-08-14T18:09:11.796Z,100143.16
2022-08-14T18:11:55.200Z,100149.41
2022-08-14T18:14:32.265Z,100160.44
2022-08-14T18:17:01.433Z,100158.97
2022-08-14T18:19:30.595Z,100158.56
2022-08-14T18:21:59.151Z,100162.53
2022-08-14T18:24:29.579Z,100179.78
2022-08-14T18:27:02.094Z,100182.91
2022-08-14T18:29:31.618Z,100182.09
2022-08-14T18:31:59.971Z,100190.00
2022-08-14T18:34:35.395Z,100189.81
2022-08-14T18:37:17.562Z,100179.00
2022-08-14T18:40:02.963Z,100191.28
2022-08-14T18:42:44.574Z,100204.38
2022-08-14T18:45:15.586Z,100196.47
2022-08-14T18:48:14.498Z,100197.25
2022-08-14T18:50:33.331Z,100192.28
2022-08-14T18:53:05.848Z,100191.66
2022-08-14T18:55:53.771Z,100195.00
2022-08-14T18:58:30.452Z,100200.56
2022-08-14T19:01:01.258Z,100203.97
2022-08-14T19:03:58.691Z,100203.09
2022-08-14T19:06:40.146Z,100203.47
2022-08-14T19:09:08.192Z,100202.06
2022-08-14T19:11:50.372Z,100208.69
2022-08-14T19:14:46.822Z,100214.31
2022-08-14T19:18:14.763Z,100210.75
2022-08-14T19:20:46.341Z,100215.34
2022-08-14T19:23:16.794Z,100219.06
2022-08-14T19:25:51.799Z,100210.16
2022-08-14T19:28:31.546Z,100220.94
2022-08-14T19:31:54.983Z,100213.47
2022-08-14T19:34:47.995Z,100218.44
2022-08-14T19:37:16.285Z,100209.31
2022-08-14T19:39:54.092Z,100207.44
2022-08-14T19:42:28.038Z,100202.25
2022-08-14T19:44:58.916Z,100207.66
2022-08-14T19:47:38.617Z,100203.06
2022-08-14T19:50:31.142Z,100201.44
2022-08-14T19:53:05.172Z,100193.34
2022-08-14T19:55:45.418Z,100186.06
2022-08-14T19:58:13.675Z,100185.84
2022-08-14T20:00:52.481Z,100186.25
2022-08-14T20:03:24.234Z,100181.28
2022-08-14T20:05:59.476Z,100184.38
2022-08-14T20:10:58.536Z,100184.63
2022-08-14T20:12:00.509Z,100185.25
2022-08-14T20:14:23.617Z,100183.97
2022-08-14T20:17:04.687Z,100179.22
2022-08-14T20:19:37.564Z,100184.84
2022-08-14T20:22:35.337Z,100182.56
2022-08-14T20:24:54.556Z,100192.47
2022-08-14T20:27:44.356Z,100181.91
2022-08-14T20:30:35.966Z,100176.50
2022-08-14T20:33:08.027Z,100170.69
2022-08-14T20:35:43.319Z,100165.75
2022-08-14T20:38:30.229Z,100174.25
2022-08-14T20:40:59.926Z,100172.38
2022-08-14T20:43:46.096Z,100172.38
2022-08-14T20:46:16.181Z,100172.56
2022-08-14T20:48:57.396Z,100169.06
2022-08-14T20:51:37.157Z,100163.44
2022-08-14T20:54:06.005Z,100165.75
2022-08-14T20:56:34.161Z,100169.25
2022-08-14T20:59:17.313Z,100162.81
2022-08-14T21:01:47.615Z,100165.50
2022-08-14T21:04:23.684Z,100166.34
2022-08-14T21:07:25.377Z,100165.28
2022-08-14T21:10:05.078Z,100156.16
2022-08-14T21:12:35.131Z,100169.66
2022-08-14T21:15:04.918Z,100163.25
2022-08-14T21:17:38.688Z,100170.28
2022-08-14T21:20:26.439Z,100165.94
2022-08-14T21:23:00.688Z,100168.63
2022-08-14T21:25:31.770Z,100160.53
2022-08-14T21:28:00.639Z,100163.25
2022-08-14T21:30:46.723Z,100161.34
2022-08-14T21:33:20.455Z,100166.16
2022-08-14T21:35:49.465Z,100172.38
2022-08-14T21:38:22.547Z,100168.84
2022-08-14T21:41:01.507Z,100159.91
2022-08-14T21:43:32.148Z,100161.56
2022-08-14T21:46:00.274Z,100159.06
2022-08-14T21:48:32.182Z,100156.38
2022-08-14T21:51:53.577Z,100165.28
2022-08-14T21:53:58.690Z,100154.50
2022-08-14T21:56:38.239Z,100155.56
2022-08-14T21:59:08.198Z,100149.09
2022-08-14T22:02:01.832Z,100151.19
2022-08-14T22:04:32.042Z,100152.00
2022-08-14T22:07:01.550Z,100142.28
2022-08-14T22:09:32.408Z,100146.59
2022-08-14T22:12:06.740Z,100140.38
2022-08-14T22:14:43.492Z,100147.66
2022-08-14T22:17:13.098Z,100137.91
2022-08-14T22:19:54.542Z,100140.38
2022-08-14T22:22:22.603Z,100140.38
2022-08-14T22:24:54.052Z,100146.59
2022-08-14T22:27:28.428Z,100150.16
2022-08-14T22:29:58.609Z,100143.09
2022-08-14T22:32:35.383Z,100135.00
2022-08-14T22:35:15.599Z,100136.06
2022-08-14T22:37:44.434Z,100134.16
2022-08-14T22:40:51.873Z,100128.78
2022-08-14T22:43:01.063Z,100125.47
2022-08-14T22:45:36.249Z,100129.19
2022-08-14T22:48:05.225Z,100133.34
2022-08-14T22:50:49.045Z,100127.31
2022-08-14T22:53:21.241Z,100123.78
2022-08-14T22:55:52.051Z,100133.38
2022-08-14T22:58:20.343Z,100127.56
2022-08-14T23:01:01.246Z,100121.31
2022-08-14T23:03:34.167Z,100124.84
2022-08-14T23:06:03.139Z,100127.56
2022-08-14T23:08:58.020Z,100113.00
2022-08-14T23:11:28.866Z,100125.06
2022-08-14T23:13:56.322Z,100117.81
2022-08-14T23:16:28.457Z,100118.22
2022-08-14T23:18:55.900Z,100123.00
2022-08-14T23:21:25.115Z,100119.28
2022-08-14T23:23:55.264Z,100122.59
2022-08-14T23:26:48.640Z,100129.66
2022-08-14T23:29:11.259Z,100130.47
2022-08-14T23:31:39.396Z,100123.41
2022-08-14T23:34:07.803Z,100123.41
2022-08-14T23:36:53.443Z,100122.38
2022-08-14T23:39:24.599Z,100122.16
2022-08-14T23:41:58.061Z,100110.97
2022-08-14T23:44:31.911Z,100113.22
2022-08-14T23:47:03.274Z,100118.00
2022-08-14T23:50:01.375Z,100113.22
2022-08-14T23:52:50.904Z,100109.50
2022-08-14T23:55:11.146Z,100109.09
2022-08-14T23:57:43.803Z,100108.03
